Time;durP1;ratioP1;P1;durP2;ratioP2;P2;SDS_P1;SDS_P2;PMS_P1;PMS_P2;Temp;Humidity;BMP_temperature;BMP_pressure;BME280_temperature;BME280_humidity;BME280_pressure;Samples;Min_cycle;Max_cycle;Signal;HPM_P1;HPM_P2
2024/01/24 00:02:25;;;;;;;8.80;3.55;;;;;;;11.52;63.36;99434.19;4978794;28;20046;-57
2024/01/24 00:04:51;;;;;;;12.35;2.03;;;;;;;11.49;63.94;99448.06;4983352;28;20531;-54
2024/01/24 00:07:18;;;;;;;14.52;3.28;;;;;;;11.47;63.82;99446.38;4977530;28;20122;-56
2024/01/24 00:09:45;;;;;;;11.05;3.95;;;;;;;11.40;64.15;99455.97;4981510;28;20054;-55
2024/01/24 00:12:12;;;;;;;14.25;4.68;;;;;;;11.41;64.13;99442.13;4981526;28;20137;-52
2024/01/24 00:14:39;;;;;;;8.50;2.65;;;;;;;11.30;63.76;99440.59;4984151;28;20217;-53
2024/01/24 00:17:08;;;;;;;12.63;4.05;;;;;;;11.33;63.87;99460.41;4984325;28;20430;-58
2024/01/24 00:19:35;;;;;;;15.90;3.10;;;;;;;11.43;64.01;99472.38;4980621;28;20057;-57
2024/01/24 00:22:02;;;;;;;9.02;2.83;;;;;;;11.35;64.08;99469.00;4982221;28;20054;-55
2024/01/24 00:24:29;;;;;;;11.38;3.60;;;;;;;11.30;63.93;99455.28;4983546;28;20057;-57
2024/01/24 00:26:56;;;;;;;14.05;4.70;;;;;;;11.23;63.01;99458.84;4982961;28;20047;-52
2024/01/24 00:29:23;;;;;;;11.20;3.08;;;;;;;11.36;64.75;99464.69;4986940;28;20042;-56
2024/01/24 00:31:49;;;;;;;7.00;3.50;;;;;;;11.37;64.54;99488.00;4980878;28;20046;-57
2024/01/24 00:34:17;;;;;;;6.28;3.42;;;;;;;11.30;63.40;99500.22;4982928;28;20054;-54
2024/01/24 00:36:44;;;;;;;17.17;3.78;;;;;;;11.43;64.79;99502.63;4978243;28;20102;-55
2024/01/24 00:39:13;;;;;;;8.82;3.40;;;;;;;11.30;64.02;99497.63;4981920;28;20061;-55
2024/01/24 00:41:41;;;;;;;9.45;3.85;;;;;;;11.31;63.37;99493.28;4984192;28;20054;-56
2024/01/24 00:44:09;;;;;;;13.27;4.07;;;;;;;11.43;63.44;99497.44;4980372;28;20104;-57
2024/01/24 00:46:35;;;;;;;9.57;5.07;;;;;;;11.32;63.20;99490.66;4983286;28;20054;-53
2024/01/24 00:49:03;;;;;;;9.65;1.27;;;;;;;11.32;63.48;99490.66;4983535;28;20601;-55
2024/01/24 00:51:29;;;;;;;12.80;4.15;;;;;;;11.32;63.29;99490.66;4983626;28;20055;-53
2024/01/24 00:53:56;;;;;;;7.78;3.47;;;;;;;11.31;63.58;99499.31;4978220;28;20515;-55
2024/01/24 00:56:23;;;;;;;10.10;3.80;;;;;;;11.38;63.54;99499.25;4978480;28;20047;-56
2024/01/24 00:58:50;;;;;;;15.10;4.32;;;;;;;11.35;64.02;99522.63;4979312;28;20050;-53
2024/01/24 01:01:16;;;;;;;10.90;4.75;;;;;;;11.31;63.42;99520.06;4983901;28;20050;-58
2024/01/24 01:03:43;;;;;;;21.35;4.90;;;;;;;11.37;63.19;99557.16;4975661;28;20053;-55
2024/01/24 01:06:10;;;;;;;14.43;4.68;;;;;;;11.17;62.57;99560.88;4985618;28;20042;-57
2024/01/24 01:08:37;;;;;;;20.27;3.80;;;;;;;11.28;63.74;99561.59;4986095;28;20046;-56
2024/01/24 01:11:06;;;;;;;7.13;4.15;;;;;;;11.23;63.05;99563.38;4982182;28;20058;-54
2024/01/24 01:13:36;;;;;;;14.95;3.60;;;;;;;11.22;63.90;99587.59;4986201;28;20046;-57
2024/01/24 01:16:04;;;;;;;12.90;4.18;;;;;;;11.19;63.34;99564.31;4987622;28;20050;-55
2024/01/24 01:18:31;;;;;;;16.38;3.97;;;;;;;11.18;62.44;99565.19;4988342;28;20043;-58
2024/01/24 01:21:01;;;;;;;25.58;4.25;;;;;;;11.17;63.05;99589.38;4981704;28;20054;-59
2024/01/24 01:23:29;;;;;;;12.77;3.92;;;;;;;11.14;63.78;99560.91;4979837;28;20515;-57
2024/01/24 01:25:56;;;;;;;17.25;3.67;;;;;;;11.21;63.35;99569.47;4975337;28;20496;-55
2024/01/24 01:28:24;;;;;;;12.07;4.05;;;;;;;11.03;61.81;99586.97;4987207;28;20050;-55
2024/01/24 01:30:51;;;;;;;11.95;3.90;;;;;;;11.12;61.86;99567.84;4994697;28;20057;-57
2024/01/24 01:33:20;;;;;;;17.08;4.10;;;;;;;11.03;62.14;99568.81;4990683;28;20089;-56
2024/01/24 01:35:48;;;;;;;11.63;2.00;;;;;;;11.08;61.69;99566.19;4983567;28;20503;-55
2024/01/24 01:38:15;;;;;;;11.45;4.07;;;;;;;10.90;62.15;99586.25;4991164;28;20053;-55
2024/01/24 01:40:44;;;;;;;15.57;3.63;;;;;;;10.93;61.48;99601.75;4992348;28;20540;-55
2024/01/24 01:43:14;;;;;;;15.38;4.53;;;;;;;10.89;62.10;99642.41;4989306;28;20058;-57
2024/01/24 01:45:42;;;;;;;12.35;3.55;;;;;;;10.85;61.01;99625.19;4978726;28;20045;-54
2024/01/24 01:48:11;;;;;;;13.23;3.90;;;;;;;10.84;60.85;99627.78;4986606;28;20098;-55
2024/01/24 01:50:40;;;;;;;20.90;4.15;;;;;;;10.71;60.63;99634.81;4993556;28;20137;-52
2024/01/24 01:53:08;;;;;;;14.05;3.88;;;;;;;10.69;61.22;99652.09;4996823;28;20050;-58
2024/01/24 01:55:36;;;;;;;11.75;4.78;;;;;;;10.60;60.85;99634.94;4990385;28;20074;-57
2024/01/24 01:58:03;;;;;;;12.63;3.50;;;;;;;10.65;60.83;99643.50;4980847;28;20550;-55
2024/01/24 02:00:32;;;;;;;14.57;4.47;;;;;;;10.60;61.47;99655.66;4995247;28;20046;-55
2024/01/24 02:03:00;;;;;;;10.52;3.85;;;;;;;10.62;61.14;99670.28;4980741;28;20161;-53
2024/01/24 02:05:28;;;;;;;12.68;3.33;;;;;;;10.66;60.90;99661.63;4986365;28;20042;-58
2024/01/24 02:07:55;;;;;;;10.95;3.35;;;;;;;10.63;61.40;99676.31;4984156;28;20065;-57
2024/01/24 02:10:21;;;;;;;14.38;3.97;;;;;;;10.56;60.28;99685.00;4986288;28;20166;-54
2024/01/24 02:12:49;;;;;;;10.43;4.18;;;;;;;10.40;59.89;99669.56;4981600;28;20045;-55
2024/01/24 02:15:16;;;;;;;15.80;5.45;;;;;;;10.38;59.82;99671.31;4987460;28;20129;-55
2024/01/24 02:17:43;;;;;;;11.20;4.07;;;;;;;10.38;60.09;99671.31;4987326;28;20514;-55
2024/01/24 02:20:12;;;;;;;14.82;4.13;;;;;;;10.43;60.73;99692.84;4986064;28;20577;-55
2024/01/24 02:22:39;;;;;;;11.80;3.33;;;;;;;10.47;59.69;99699.75;4982488;28;20042;-55
2024/01/24 02:25:07;;;;;;;17.95;4.45;;;;;;;10.48;60.59;99693.72;4978822;28;20064;-52
2024/01/24 02:27:34;;;;;;;13.23;3.20;;;;;;;10.57;60.09;99717.81;4986751;28;20050;-57
2024/01/24 02:30:02;;;;;;;8.55;3.08;;;;;;;10.40;60.72;99685.97;4985803;28;20149;-56
2024/01/24 02:32:29;;;;;;;10.20;3.38;;;;;;;10.48;60.98;99691.13;4982284;28;20050;-55
2024/01/24 02:34:56;;;;;;;9.35;2.85;;;;;;;10.37;60.81;99695.50;4985528;28;20057;-58
2024/01/24 02:37:22;;;;;;;8.20;3.78;;;;;;;10.43;61.33;99705.78;4982953;28;20055;-54
2024/01/24 02:39:49;;;;;;;10.60;3.95;;;;;;;10.41;60.72;99707.56;4979331;28;20133;-56
2024/01/24 02:42:16;;;;;;;21.52;5.00;;;;;;;10.46;61.79;99705.81;4981681;28;20054;-56
2024/01/24 02:44:43;;;;;;;18.35;4.03;;;;;;;10.44;62.21;99723.06;4975954;28;20046;-58
2024/01/24 02:47:11;;;;;;;15.27;5.80;;;;;;;10.43;61.32;99721.34;4983659;28;20059;-54
2024/01/24 02:49:40;;;;;;;16.88;3.97;;;;;;;10.34;61.92;99721.41;4981286;28;20058;-57
2024/01/24 02:52:07;;;;;;;19.75;3.45;;;;;;;10.30;61.37;99743.84;4985123;28;20065;-54
2024/01/24 02:54:37;;;;;;;13.50;2.42;;;;;;;10.37;62.01;99740.34;4984080;28;20059;-58
2024/01/24 02:57:04;;;;;;;11.15;2.88;;;;;;;10.31;62.03;99752.47;4985752;28;20057;-58
2024/01/24 02:59:32;;;;;;;10.30;3.90;;;;;;;10.30;62.61;99746.44;4986926;28;20073;-56
2024/01/24 03:02:00;;;;;;;11.23;3.80;;;;;;;10.37;61.54;99747.28;4985534;28;20050;-55
2024/01/24 03:04:28;;;;;;;10.85;4.68;;;;;;;10.28;61.41;99753.38;4978917;28;20051;-53
2024/01/24 03:06:55;;;;;;;16.60;4.03;;;;;;;10.26;61.03;99755.97;4979452;28;20068;-54
2024/01/24 03:09:23;;;;;;;14.88;3.35;;;;;;;10.23;61.14;99766.34;4983885;28;20065;-55
2024/01/24 03:11:55;;;;;;;9.82;3.20;;;;;;;10.23;60.87;99797.41;4987524;28;20054;-55
2024/01/24 03:14:21;;;;;;;6.55;1.35;;;;;;;10.12;60.42;99788.81;4982365;28;20818;-52
2024/01/24 03:16:48;;;;;;;11.02;3.53;;;;;;;10.25;61.34;99782.72;4984836;28;20042;-54
2024/01/24 03:19:16;;;;;;;6.68;3.50;;;;;;;10.24;60.79;99793.94;4988144;28;20046;-53
2024/01/24 03:21:46;;;;;;;18.88;4.72;;;;;;;10.36;61.17;99802.50;4983115;28;20051;-55
2024/01/24 03:24:13;;;;;;;16.80;3.58;;;;;;;10.25;60.46;99813.78;4981662;28;20045;-56
2024/01/24 03:26:40;;;;;;;22.20;3.83;;;;;;;10.16;60.95;99800.88;4986224;28;20057;-56
2024/01/24 03:29:08;;;;;;;16.65;2.60;;;;;;;10.26;60.75;99807.72;4990502;28;20054;-54
2024/01/24 03:31:36;;;;;;;5.72;3.58;;;;;;;10.21;61.05;99806.03;4984577;28;20408;-55
2024/01/24 03:34:03;;;;;;;10.05;3.15;;;;;;;10.16;60.44;99821.59;4982727;28;20050;-56
2024/01/24 03:36:31;;;;;;;9.18;3.38;;;;;;;10.07;60.69;99826.81;4990044;28;20054;-56
2024/01/24 03:38:58;;;;;;;10.10;3.47;;;;;;;10.11;61.42;99823.34;4982280;28;20051;-58
2024/01/24 03:41:25;;;;;;;15.18;3.65;;;;;;;10.15;60.96;99831.09;4987095;28;20046;-58
2024/01/24 03:43:51;;;;;;;15.30;4.22;;;;;;;10.11;62.04;99854.41;4989956;28;20711;-58
2024/01/24 03:46:19;;;;;;;10.25;3.50;;;;;;;9.98;62.31;99838.91;4980095;28;20065;-59
2024/01/24 03:48:46;;;;;;;9.27;3.83;;;;;;;9.99;61.81;99843.22;4975749;28;20058;-54
2024/01/24 03:51:14;;;;;;;9.20;3.38;;;;;;;10.00;61.98;99837.16;4981347;28;20137;-56
2024/01/24 03:53:41;;;;;;;14.57;3.17;;;;;;;10.10;61.87;99847.50;4985113;28;20054;-56
2024/01/24 03:56:08;;;;;;;14.73;2.88;;;;;;;10.01;61.96;99849.28;4977637;28;20054;-53
2024/01/24 03:58:37;;;;;;;8.38;3.78;;;;;;;9.95;61.98;99854.44;4985096;28;20051;-57
2024/01/24 04:01:04;;;;;;;5.05;2.78;;;;;;;9.97;62.91;99854.44;4983012;28;20050;-56
2024/01/24 04:03:32;;;;;;;13.25;4.20;;;;;;;9.97;62.43;99868.22;4981866;28;20077;-52
2024/01/24 04:05:59;;;;;;;21.27;4.53;;;;;;;10.07;62.62;99883.75;4984461;28;20124;-52
2024/01/24 04:08:26;;;;;;;7.50;2.95;;;;;;;10.01;61.91;99874.28;4980616;28;20527;-55
2024/01/24 04:10:53;;;;;;;9.32;3.03;;;;;;;9.96;61.77;99892.38;4985576;28;20055;-56
2024/01/24 04:13:20;;;;;;;24.63;2.92;;;;;;;9.97;62.48;99896.69;4980020;28;20614;-50
2024/01/24 04:15:46;;;;;;;14.95;3.67;;;;;;;9.98;62.17;99908.78;4985164;28;20050;-54
2024/01/24 04:18:13;;;;;;;10.10;2.92;;;;;;;9.97;62.40;99913.97;4983113;28;20140;-53
2024/01/24 04:20:40;;;;;;;11.55;3.25;;;;;;;10.01;62.36;99911.38;4981610;28;20046;-51
2024/01/24 04:23:06;;;;;;;13.65;2.72;;;;;;;10.04;62.08;99936.38;4984073;28;20054;-52
2024/01/24 04:25:33;;;;;;;18.05;4.65;;;;;;;10.06;61.50;99918.25;4986970;28;20057;-55
2024/01/24 04:28:01;;;;;;;7.82;2.60;;;;;;;10.06;61.62;99944.13;4979423;28;20093;-55
2024/01/24 04:30:29;;;;;;;6.75;3.13;;;;;;;10.09;61.79;99960.50;4987133;28;20662;-55
2024/01/24 04:32:56;;;;;;;7.88;2.55;;;;;;;10.06;61.39;99957.06;4978913;28;20576;-52
2024/01/24 04:35:24;;;;;;;10.77;2.70;;;;;;;10.09;61.71;99960.50;4981907;28;20049;-55
2024/01/24 04:37:51;;;;;;;5.85;2.88;;;;;;;10.02;60.79;99980.34;4983489;28;20042;-54
2024/01/24 04:40:18;;;;;;;9.20;2.95;;;;;;;10.09;61.41;99969.97;4980704;28;20046;-55
2024/01/24 04:42:46;;;;;;;12.55;3.13;;;;;;;10.11;61.24;99968.25;4978181;28;20051;-52
2024/01/24 04:45:15;;;;;;;6.60;1.52;;;;;;;10.05;61.02;99978.63;4980856;28;20650;-52
2024/01/24 04:47:43;;;;;;;9.82;2.83;;;;;;;10.12;61.65;99995.84;4982894;28;20149;-56
2024/01/24 04:50:11;;;;;;;21.65;2.72;;;;;;;10.07;61.44;100008.81;4977315;28;20149;-55
2024/01/24 04:52:38;;;;;;;12.65;4.05;;;;;;;10.02;61.27;99995.88;4981108;28;20062;-56
2024/01/24 04:55:11;;;;;;;12.88;3.63;;;;;;;9.99;61.49;100000.19;4986148;28;20515;-54
2024/01/24 04:57:41;;;;;;;15.25;3.85;;;;;;;10.05;61.37;100014.84;4982213;28;20058;-53
2024/01/24 05:00:09;;;;;;;9.85;3.03;;;;;;;9.92;61.35;100014.84;4979778;28;20086;-55
2024/01/24 05:02:37;;;;;;;11.15;3.88;;;;;;;9.88;61.65;100018.31;4986215;28;20054;-53
2024/01/24 05:05:06;;;;;;;15.10;3.63;;;;;;;9.96;61.67;100024.34;4992879;28;20066;-52
2024/01/24 05:07:34;;;;;;;9.88;4.03;;;;;;;9.86;61.70;100025.22;4982163;28;20073;-55
2024/01/24 05:10:03;;;;;;;19.33;3.33;;;;;;;9.83;62.04;100035.56;4992234;28;20113;-56
2024/01/24 05:12:31;;;;;;;16.48;3.88;;;;;;;9.91;61.63;100059.72;4980932;28;20051;-56
2024/01/24 05:14:58;;;;;;;8.40;2.58;;;;;;;9.81;62.01;100052.81;4982969;28;20073;-53
2024/01/24 05:17:24;;;;;;;8.90;2.90;;;;;;;9.75;62.06;100049.34;4987238;28;20519;-55
2024/01/24 05:19:51;;;;;;;7.63;1.35;;;;;;;9.80;62.00;100076.94;4986492;28;20456;-55
2024/01/24 05:22:18;;;;;;;11.25;4.32;;;;;;;9.75;61.68;100111.44;4987665;28;20578;-53
2024/01/24 05:24:45;;;;;;;11.25;3.85;;;;;;;9.79;62.23;100096.78;4989283;28;20058;-55
2024/01/24 05:27:12;;;;;;;9.50;2.58;;;;;;;9.77;62.27;100104.53;4988315;28;20551;-51
2024/01/24 05:29:39;;;;;;;5.60;3.55;;;;;;;9.70;61.58;100123.50;4992060;28;20054;-57
2024/01/24 05:32:07;;;;;;;15.85;4.28;;;;;;;9.76;61.67;100114.88;4987134;28;20074;-55
2024/01/24 05:34:34;;;;;;;9.85;3.00;;;;;;;9.66;60.92;100095.88;4986415;28;20047;-54
2024/01/24 05:37:02;;;;;;;11.88;1.77;;;;;;;9.69;61.60;100114.00;4981877;28;20452;-53
2024/01/24 05:39:32;;;;;;;11.38;3.13;;;;;;;9.66;61.92;100106.22;4986806;28;20538;-52
2024/01/24 05:42:00;;;;;;;5.57;2.53;;;;;;;9.60;61.78;100101.91;4988996;28;20056;-53
2024/01/24 05:44:26;;;;;;;11.80;4.10;;;;;;;9.57;61.73;100101.06;4988926;28;20057;-55
2024/01/24 05:46:53;;;;;;;17.83;3.55;;;;;;;9.57;61.89;100090.72;4982365;28;20113;-57
2024/01/24 05:49:20;;;;;;;11.48;4.35;;;;;;;9.44;61.69;100106.19;4982934;28;20047;-51
2024/01/24 05:51:48;;;;;;;10.52;3.03;;;;;;;9.51;61.59;100128.63;4986814;28;20056;-56
2024/01/24 05:54:15;;;;;;;7.07;2.97;;;;;;;9.46;61.62;100135.47;4980393;28;20093;-53
2024/01/24 05:56:42;;;;;;;14.10;3.97;;;;;;;9.42;61.77;100144.09;4986075;28;20054;-51
2024/01/24 05:59:09;;;;;;;6.75;3.13;;;;;;;9.45;62.23;100133.75;4985974;28;20061;-52
2024/01/24 06:01:43;;;;;;;7.80;3.00;;;;;;;9.34;61.87;100163.88;4984311;28;20057;-57
2024/01/24 06:04:11;;;;;;;12.15;5.28;;;;;;;9.42;62.41;100159.59;4987447;28;20057;-56
2024/01/24 06:06:39;;;;;;;12.48;4.30;;;;;;;9.44;62.09;100132.06;4986146;28;20091;-57
2024/01/24 06:09:06;;;;;;;10.18;3.40;;;;;;;9.45;62.09;100159.63;4985055;28;20046;-55
2024/01/24 06:11:33;;;;;;;5.82;3.78;;;;;;;9.31;61.96;100156.09;4987277;28;20555;-54
2024/01/24 06:14:03;;;;;;;11.98;3.47;;;;;;;9.42;61.81;100175.13;4980822;28;20054;-55
2024/01/24 06:16:30;;;;;;;14.90;3.78;;;;;;;9.34;62.08;100198.38;4985301;28;20054;-57
2024/01/24 06:18:57;;;;;;;9.73;3.33;;;;;;;9.30;62.26;100211.25;4982127;28;20049;-55
2024/01/24 06:21:23;;;;;;;10.73;4.32;;;;;;;9.28;62.27;100223.31;4981838;28;20055;-55
2024/01/24 06:23:51;;;;;;;5.47;3.53;;;;;;;9.30;62.54;100206.97;4981132;28;20097;-51
2024/01/24 06:26:18;;;;;;;9.23;1.85;;;;;;;9.29;62.30;100199.19;4979064;28;20453;-53
2024/01/24 06:28:46;;;;;;;6.25;3.33;;;;;;;9.25;62.60;100213.81;4984784;28;20042;-53
2024/01/24 06:31:14;;;;;;;11.45;3.78;;;;;;;9.31;62.75;100228.47;4988906;28;20065;-56
2024/01/24 06:33:41;;;;;;;8.65;3.13;;;;;;;9.26;62.73;100247.41;4993795;28;20562;-57
2024/01/24 06:36:08;;;;;;;12.35;3.05;;;;;;;9.22;63.14;100245.69;4988963;28;20055;-54
2024/01/24 06:38:35;;;;;;;6.88;3.30;;;;;;;9.11;62.75;100257.66;4980835;28;20523;-56
2024/01/24 06:41:02;;;;;;;13.55;3.33;;;;;;;9.19;62.79;100270.66;4989339;28;20050;-54
2024/01/24 06:43:29;;;;;;;13.80;3.92;;;;;;;9.29;62.47;100302.59;4980894;28;20055;-58
2024/01/24 06:45:55;;;;;;;10.75;3.13;;;;;;;9.24;62.93;100303.41;4983823;28;20046;-52
2024/01/24 06:48:22;;;;;;;10.20;3.13;;;;;;;9.28;63.25;100285.34;4983581;28;20093;-52
2024/01/24 06:50:49;;;;;;;11.55;4.00;;;;;;;9.24;63.38;100306.00;4985946;28;20062;-55
2024/01/24 06:53:16;;;;;;;15.15;4.97;;;;;;;9.19;62.99;100287.00;4987898;28;20058;-53
2024/01/24 06:55:44;;;;;;;7.70;2.72;;;;;;;9.24;62.95;100293.09;4981114;28;20156;-56
2024/01/24 06:58:10;;;;;;;17.65;3.42;;;;;;;9.25;63.02;100281.88;4984717;28;20054;-57
2024/01/24 07:00:38;;;;;;;9.15;1.48;;;;;;;9.17;63.34;100273.22;4984031;28;20686;-54
2024/01/24 07:03:06;;;;;;;10.23;3.55;;;;;;;9.15;63.38;100300.75;4985461;28;20042;-56
2024/01/24 07:05:34;;;;;;;9.93;2.38;;;;;;;9.07;63.52;100286.91;4979709;28;20050;-55
2024/01/24 07:08:03;;;;;;;12.60;3.35;;;;;;;9.16;63.80;100327.47;4982779;28;20161;-57
2024/01/24 07:10:29;;;;;;;9.43;2.22;;;;;;;9.13;63.37;100328.31;4982560;28;20435;-56
2024/01/24 07:12:56;;;;;;;6.75;3.05;;;;;;;9.05;63.57;100305.00;4979263;28;20058;-56
2024/01/24 07:15:25;;;;;;;6.93;2.88;;;;;;;9.04;63.53;100344.59;4983470;28;20081;-56
2024/01/24 07:17:51;;;;;;;8.35;4.00;;;;;;;9.12;63.58;100348.13;4982697;28;20051;-54
2024/01/24 07:20:18;;;;;;;9.20;3.10;;;;;;;9.12;63.06;100357.59;4995398;28;20109;-53
2024/01/24 07:22:45;;;;;;;15.15;3.60;;;;;;;9.10;63.24;100364.47;4977872;28;20104;-54
2024/01/24 07:25:14;;;;;;;7.38;3.05;;;;;;;8.99;63.39;100372.13;4988149;28;20061;-52
2024/01/24 07:27:40;;;;;;;13.73;2.75;;;;;;;8.96;63.79;100369.53;4982541;28;20109;-54
2024/01/24 07:30:08;;;;;;;7.65;3.58;;;;;;;8.95;63.42;100381.56;4987188;28;20042;-55
2024/01/24 07:32:39;;;;;;;9.52;2.95;;;;;;;8.96;63.12;100403.09;4981777;28;20084;-52
2024/01/24 07:35:06;;;;;;;14.18;4.32;;;;;;;8.97;63.28;100387.63;4976176;28;20054;-52
2024/01/24 07:37:33;;;;;;;7.70;3.63;;;;;;;8.98;63.43;100401.38;4982833;28;20054;-55
2024/01/24 07:39:59;;;;;;;12.38;4.18;;;;;;;8.96;63.24;100393.66;4988923;28;20057;-58
2024/01/24 07:42:26;;;;;;;6.75;2.53;;;;;;;8.95;63.34;100398.78;4984407;28;20100;-53
2024/01/24 07:44:53;;;;;;;10.70;3.25;;;;;;;8.85;63.36;100401.28;4979752;28;20074;-51
2024/01/24 07:47:20;;;;;;;9.98;3.25;;;;;;;8.85;63.68;100390.09;4978749;28;20050;-51
2024/01/24 07:49:48;;;;;;;15.55;3.03;;;;;;;8.80;63.80;100399.50;4980559;28;20403;-57
2024/01/24 07:52:15;;;;;;;14.27;2.97;;;;;;;8.82;63.68;100426.22;4986050;28;20046;-55
2024/01/24 07:55:01;;;;;;;6.30;3.60;;;;;;;8.66;63.65;100446.72;4980584;28;20062;-54
2024/01/24 07:57:28;;;;;;;12.93;6.22;;;;;;;8.73;64.24;100464.00;4978683;28;20054;-56
2024/01/24 07:59:55;;;;;;;12.48;4.57;;;;;;;8.77;64.04;100476.94;4982226;28;20104;-55
2024/01/24 08:02:23;;;;;;;12.43;5.38;;;;;;;8.71;64.44;100476.03;4988418;28;20054;-55
2024/01/24 08:04:50;;;;;;;22.67;6.63;;;;;;;8.79;63.80;100488.16;4982554;28;20046;-55
2024/01/24 08:07:19;;;;;;;36.13;10.13;;;;;;;8.84;63.92;100502.00;4979013;28;20058;-52
2024/01/24 08:09:49;;;;;;;39.55;10.93;;;;;;;8.77;63.92;100507.94;4979258;28;20050;-57
2024/01/24 08:12:16;;;;;;;24.13;8.85;;;;;;;8.63;64.44;100508.63;4981316;28;20123;-54
2024/01/24 08:14:43;;;;;;;10.90;4.13;;;;;;;8.69;64.25;100488.06;4984603;28;20050;-56
2024/01/24 08:17:11;;;;;;;18.45;5.72;;;;;;;8.72;64.28;100475.16;4976215;28;20054;-57
2024/01/24 08:19:38;;;;;;;11.70;4.18;;;;;;;8.71;64.54;100481.19;4982685;28;20070;-52
2024/01/24 08:22:05;;;;;;;13.00;4.65;;;;;;;8.66;64.87;100513.84;4981593;28;20388;-55
2024/01/24 08:24:32;;;;;;;20.00;5.20;;;;;;;8.71;64.13;100501.84;4984235;28;20046;-53
2024/01/24 08:27:00;;;;;;;10.77;4.35;;;;;;;8.65;64.04;100517.25;4982247;28;20153;-54
2024/01/24 08:29:27;;;;;;;14.35;6.68;;;;;;;8.66;64.27;100524.19;4988304;28;20057;-56
2024/01/24 08:32:04;;;;;;;8.48;3.88;;;;;;;8.69;64.37;100528.50;4981067;28;20483;-53
2024/01/24 08:34:35;;;;;;;15.30;6.15;;;;;;;8.66;64.15;100529.34;4981505;28;20050;-53
2024/01/24 08:37:03;;;;;;;16.08;5.53;;;;;;;8.64;64.58;100536.19;4975633;28;20121;-58
2024/01/24 08:39:33;;;;;;;18.25;6.55;;;;;;;8.72;64.87;100534.56;4982875;28;20039;-52
2024/01/24 08:42:00;;;;;;;15.15;5.45;;;;;;;8.83;64.45;100523.50;4980022;28;20058;-53
2024/01/24 08:44:27;;;;;;;15.20;5.03;;;;;;;8.90;64.11;100548.56;4982986;28;20054;-53
2024/01/24 08:46:53;;;;;;;10.98;3.58;;;;;;;9.06;64.08;100548.75;4981985;28;20519;-56
2024/01/24 08:49:20;;;;;;;10.75;4.25;;;;;;;9.17;63.56;100542.00;4980556;28;20046;-56
2024/01/24 08:51:47;;;;;;;13.70;2.72;;;;;;;9.38;63.89;100546.53;5008132;28;20551;-53
2024/01/24 08:54:15;;;;;;;13.10;5.35;;;;;;;9.54;63.23;100544.09;4982034;28;20062;-51
2024/01/24 08:56:42;;;;;;;13.80;4.43;;;;;;;9.58;62.68;100547.56;4983018;28;20064;-57
2024/01/24 08:59:09;;;;;;;8.48;4.28;;;;;;;9.57;62.92;100545.84;4989651;28;20054;-55
2024/01/24 09:01:36;;;;;;;11.00;3.70;;;;;;;9.67;62.38;100559.72;4985861;28;20053;-55
2024/01/24 09:04:03;;;;;;;12.15;3.97;;;;;;;9.80;62.35;100579.69;4982839;28;20432;-55
2024/01/24 09:06:30;;;;;;;18.58;5.35;;;;;;;9.99;61.95;100580.69;4979714;28;20049;-56
2024/01/24 09:08:57;;;;;;;14.30;5.05;;;;;;;10.08;62.03;100579.03;4988987;28;20164;-53
2024/01/24 09:11:24;;;;;;;16.15;5.53;;;;;;;10.12;60.79;100580.78;4990172;28;20050;-52
2024/01/24 09:14:03;;;;;;;6.15;3.05;;;;;;;10.21;61.31;100586.06;4986664;28;20591;-53
2024/01/24 09:16:30;;;;;;;22.73;5.43;;;;;;;10.45;61.63;100600.06;4985378;28;20054;-57
2024/01/24 09:18:57;;;;;;;11.25;3.83;;;;;;;10.64;61.11;100601.03;4991185;28;20173;-56
2024/01/24 09:21:24;;;;;;;7.60;3.55;;;;;;;10.63;60.08;100598.41;4989008;28;20066;-54
2024/01/24 09:23:50;;;;;;;8.00;3.97;;;;;;;10.61;60.56;100613.09;4989379;28;20401;-53
2024/01/24 09:26:18;;;;;;;12.77;4.38;;;;;;;10.74;60.42;100609.72;4985651;28;20046;-54
2024/01/24 09:28:44;;;;;;;10.93;5.05;;;;;;;10.78;60.05;100606.28;4993678;28;20054;-55
2024/01/24 09:31:11;;;;;;;11.20;5.28;;;;;;;10.84;59.94;100612.38;4982126;28;20066;-56
2024/01/24 09:33:40;;;;;;;7.00;3.55;;;;;;;10.97;59.65;100624.53;4987851;28;20518;-56
2024/01/24 09:36:07;;;;;;;17.58;5.10;;;;;;;11.30;59.98;100640.22;4986028;28;20105;-54
2024/01/24 09:38:34;;;;;;;18.77;4.05;;;;;;;11.51;59.11;100647.22;4985721;28;20045;-56
2024/01/24 09:41:10;;;;;;;16.48;4.75;;;;;;;11.84;58.33;100662.84;4991115;28;20058;-53
2024/01/24 09:43:38;;;;;;;12.43;2.67;;;;;;;12.02;58.04;100645.59;4996193;28;20439;-56
2024/01/24 09:46:12;;;;;;;13.68;3.67;;;;;;;12.36;56.86;100658.59;4990589;28;20259;-54
2024/01/24 09:48:41;;;;;;;16.13;3.40;;;;;;;12.75;57.23;100650.75;4991190;28;20418;-56
2024/01/24 09:51:09;;;;;;;12.38;4.13;;;;;;;13.06;55.18;100661.06;4989302;28;20054;-56
2024/01/24 09:53:38;;;;;;;11.05;4.03;;;;;;;13.35;54.79;100673.09;4970838;28;20046;-56
2024/01/24 09:56:08;;;;;;;14.98;3.60;;;;;;;13.60;55.20;100682.56;4986572;28;20057;-55
2024/01/24 09:58:34;;;;;;;16.20;4.65;;;;;;;13.90;55.27;100679.78;4995031;28;20111;-50
2024/01/24 10:01:04;;;;;;;23.00;7.20;;;;;;;14.12;54.22;100689.19;4993860;28;20049;-59
2024/01/24 10:03:34;;;;;;;15.68;7.00;;;;;;;14.31;54.17;100698.59;4986820;28;20065;-55
2024/01/24 10:06:08;;;;;;;11.52;4.32;;;;;;;14.14;53.31;100700.47;4990542;28;20065;-55
2024/01/24 10:08:35;;;;;;;11.68;4.25;;;;;;;14.11;53.55;100705.69;4992678;28;20038;-59
2024/01/24 10:11:02;;;;;;;6.88;3.08;;;;;;;14.09;52.77;100717.84;4990138;28;20057;-57
2024/01/24 10:13:30;;;;;;;13.93;4.65;;;;;;;14.27;53.68;100711.69;4989320;28;20062;-55
2024/01/24 10:15:59;;;;;;;6.45;3.53;;;;;;;14.32;53.14;100714.22;4991944;28;20139;-54
2024/01/24 10:18:28;;;;;;;16.63;3.85;;;;;;;14.49;53.61;100736.72;4985001;28;20057;-57
2024/01/24 10:20:56;;;;;;;10.75;3.85;;;;;;;14.53;52.60;100741.00;4985161;28;20590;-56
2024/01/24 10:23:22;;;;;;;10.35;5.00;;;;;;;14.70;51.99;100753.03;4989743;28;20050;-54
2024/01/24 10:25:50;;;;;;;15.52;5.50;;;;;;;14.99;52.69;100759.75;4988379;28;20057;-55
2024/01/24 10:28:17;;;;;;;16.27;4.47;;;;;;;15.25;52.01;100766.44;4988725;28;20069;-60
2024/01/24 10:30:48;;;;;;;13.00;3.95;;;;;;;15.67;52.18;100765.97;4997373;28;20054;-55
2024/01/24 10:33:16;;;;;;;13.27;3.78;;;;;;;15.87;51.05;100762.25;4985510;28;20070;-55
2024/01/24 10:35:45;;;;;;;9.43;4.22;;;;;;;15.87;51.33;100757.88;4993891;28;20050;-53
2024/01/24 10:38:13;;;;;;;11.95;4.53;;;;;;;15.77;49.37;100766.75;4987944;28;20120;-56
2024/01/24 10:40:41;;;;;;;10.73;3.70;;;;;;;15.88;49.84;100764.81;4990542;28;20046;-54
2024/01/24 10:43:12;;;;;;;14.30;4.45;;;;;;;15.75;49.49;100752.81;4991500;28;20650;-55
2024/01/24 10:45:43;;;;;;;24.05;7.72;;;;;;;15.59;50.08;100742.56;4991731;28;20054;-57
2024/01/24 10:48:11;;;;;;;19.42;5.93;;;;;;;15.22;49.96;100732.56;4986856;28;20125;-58
2024/01/24 10:50:39;;;;;;;19.33;6.88;;;;;;;15.05;50.17;100749.25;4997327;28;20046;-52
2024/01/24 10:53:10;;;;;;;18.25;6.20;;;;;;;15.04;50.68;100744.94;4976632;28;20085;-53
2024/01/24 10:55:39;;;;;;;16.45;5.55;;;;;;;14.85;51.03;100752.94;4989431;28;20042;-54
2024/01/24 10:58:09;;;;;;;12.85;4.95;;;;;;;14.59;51.76;100740.94;4991093;28;20062;-56
2024/01/24 11:00:38;;;;;;;10.38;4.18;;;;;;;14.23;51.31;100754.25;4993665;28;20053;-53
2024/01/24 11:03:06;;;;;;;12.40;4.35;;;;;;;14.13;52.34;100766.47;4985396;28;20046;-57
2024/01/24 11:08:24;;;;;;;18.98;5.10;;;;;;;13.92;53.31;100787.44;5107062;27;20479;-53
2024/01/24 11:11:13;;;;;;;14.30;2.55;;;;;;;13.79;52.78;100795.28;5081822;28;20050;-54
2024/01/24 11:13:41;;;;;;;12.02;3.03;;;;;;;13.76;52.67;100813.53;5083062;28;20049;-56
2024/01/24 11:19:22;;;;;;;9.25;1.80;;;;;;;13.55;53.21;100825.75;5092598;27;20393;-55
2024/01/24 11:21:53;;;;;;;11.48;2.45;;;;;;;13.42;53.00;100821.41;5073011;28;20060;-53
2024/01/24 11:27:32;;;;;;;10.68;1.95;;;;;;;13.17;53.03;100808.44;5063053;27;20416;-56
2024/01/24 11:35:42;;;;;;;8.32;2.83;;;;;;;12.99;53.66;100804.97;5084859;27;20404;-52
2024/01/24 11:43:37;;;;;;;13.70;3.17;;;;;;;12.66;53.86;100848.31;5083953;27;20386;-54
2024/01/24 11:46:07;;;;;;;13.77;2.13;;;;;;;12.64;55.08;100865.63;5041414;28;20120;-54
2024/01/24 11:48:36;;;;;;;8.68;2.80;;;;;;;12.58;54.80;100866.47;5045213;28;20045;-57
2024/01/24 11:53:42;;;;;;;7.82;2.92;;;;;;;12.32;54.99;100865.53;5062599;28;20397;-56